McKinney, Texas
Current Conditions -  °F | °C
As of 1:53 AM on Thursday 29 Jan 2015 (Local Time) from KTKI Reporting Station
Few Clouds Few Clouds  
Wind Chill: 54°   Ceiling: Unl
Heat Index: 54°   Visibility: 10mi
Dew Point: 41°   Wind: 7mph
Humidity: 62%   Direction: 160°SSE
Pressure: 30.06"   Gusts: NA
Location:  33.2°N, 96.61°W
Report Text: KTKI 290753Z AUTO 16006KT 10SM FEW100 12/05 A3006 RMK AO2 SLP179 T01220050
Loading
Personal Weather Stations






























Interactive Weather Map New forecast layout! Learn more

10-Day Weather Forecast

Advertisements
Track Severe Weather on mobile